Aérodrome :
LOGIN :

S'inscrire | Disclaimer

   EN    FR    IT 

 










Légende :    VFR   VFR Marginal   IFR   IFR Intensif   IFR Très Intensif
Visi : 
Plafond : 
>= 8 km
>= 3000ft
5 à 8 km
1000 à 3000 ft
1500m à 5 km
500 à 1000 ft
800 à 1500m
200 à 500 ft
< 800m
< 200 ft
Symboles :   Orages  Brouillard  Fortes neiges  Fortes précipitations  Vent > 20 kt
SIGMETs :   Divers  Orages  Givrage  Turbulence  Onde Orograph.  Cendres Volcan.






- Altitude de l'aérodrome : 125 ft
- Code IATA : MGL


EDLN - Mönchengladbach

DERNIER METAR :
  • 200950Z 21011KT 9999 FEW029 SCT043 09/05 Q1016

METARs EXPIRÉS :
  • 200920Z 21013KT 9999 FEW025 BKN045 09/05 Q1016
  • 200850Z 21011KT 180V240 9999 FEW024 BKN045 09/05 Q1016
  • 200820Z 21010KT 9999 FEW024 BKN046 09/05 Q1017
  • 200750Z 19007KT 160V230 9999 BKN024 08/05 Q1016
  • 200720Z 20008KT 9999 FEW023 08/05 Q1017

TAF TAF EDLN
Valide du 20 à 09h jusqu'au 20 à 18h UTC


200800Z 2009/2018 21010KT 9999 SCT025 BKN040
TEMPO 2012/2018 20015G25KT



MET'MAP, la Météo Aéronautique d'un coup d'oeil ! - Copyright ORBIFLY Décembre 2007 - Disclaimer

ORBIFLY MET'MAP TEAM :

Programmation & Développement : Alexandra Zaïnal
Sur une idée originale de : Baudouin d'Aumeries
Assistance à la programmation : Marc-Olivier Méhu
Soutien technique & logistique : Manuel Goepfert

Contact : metmap@orbifly.com




SOURCES & CREDITS :

   NOAA